sensor_id;sensor_type;location;lat;lon;timestamp;pressure;altitude;pressure_sealevel;temperature;humidity
42587;BME280;28216;53.362;-6.288;2023-03-14T00:00:14;99144.53;;;4.39;100.00
42587;BME280;28216;53.362;-6.288;2023-03-14T00:02:40;99149.41;;;4.42;100.00
42587;BME280;28216;53.362;-6.288;2023-03-14T00:05:06;99156.06;;;4.45;100.00
42587;BME280;28216;53.362;-6.288;2023-03-14T00:07:34;99161.13;;;4.46;100.00
42587;BME280;28216;53.362;-6.288;2023-03-14T00:10:02;99171.94;;;4.42;100.00
42587;BME280;28216;53.362;-6.288;2023-03-14T00:12:29;99169.34;;;4.42;100.00
42587;BME280;28216;53.362;-6.288;2023-03-14T00:14:55;99175.50;;;4.41;100.00
42587;BME280;28216;53.362;-6.288;2023-03-14T00:17:20;99189.59;;;4.30;100.00
42587;BME280;28216;53.362;-6.288;2023-03-14T00:19:46;99190.88;;;4.26;100.00
42587;BME280;28216;53.362;-6.288;2023-03-14T00:22:11;99196.06;;;4.26;100.00
42587;BME280;28216;53.362;-6.288;2023-03-14T00:24:37;99200.75;;;4.23;100.00
42587;BME280;28216;53.362;-6.288;2023-03-14T00:27:02;99201.88;;;4.20;100.00
42587;BME280;28216;53.362;-6.288;2023-03-14T00:29:28;99217.28;;;4.22;100.00
42587;BME280;28216;53.362;-6.288;2023-03-14T00:31:53;99220.53;;;4.24;100.00
42587;BME280;28216;53.362;-6.288;2023-03-14T00:34:20;99222.81;;;4.27;100.00
42587;BME280;28216;53.362;-6.288;2023-03-14T00:36:45;99231.22;;;4.21;100.00
42587;BME280;28216;53.362;-6.288;2023-03-14T00:39:11;99231.53;;;4.18;100.00
42587;BME280;28216;53.362;-6.288;2023-03-14T00:41:36;99234.94;;;4.18;100.00
42587;BME280;28216;53.362;-6.288;2023-03-14T00:44:02;99244.81;;;4.14;100.00
42587;BME280;28216;53.362;-6.288;2023-03-14T00:46:27;99241.56;;;4.12;100.00
42587;BME280;28216;53.362;-6.288;2023-03-14T00:48:53;99250.47;;;4.10;100.00
42587;BME280;28216;53.362;-6.288;2023-03-14T00:51:18;99260.22;;;4.16;100.00
42587;BME280;28216;53.362;-6.288;2023-03-14T00:53:44;99256.81;;;4.15;100.00
42587;BME280;28216;53.362;-6.288;2023-03-14T00:56:12;99273.69;;;4.20;100.00
42587;BME280;28216;53.362;-6.288;2023-03-14T00:58:38;99269.34;;;4.20;100.00
42587;BME280;28216;53.362;-6.288;2023-03-14T01:01:15;99282.31;;;4.20;100.00
42587;BME280;28216;53.362;-6.288;2023-03-14T01:03:41;99286.06;;;4.26;100.00
42587;BME280;28216;53.362;-6.288;2023-03-14T01:06:13;99299.38;;;4.31;100.00
42587;BME280;28216;53.362;-6.288;2023-03-14T01:08:40;99298.59;;;4.38;100.00
42587;BME280;28216;53.362;-6.288;2023-03-14T01:11:10;99301.91;;;4.49;100.00
42587;BME280;28216;53.362;-6.288;2023-03-14T01:13:37;99305.53;;;4.56;100.00
42587;BME280;28216;53.362;-6.288;2023-03-14T01:16:05;99309.44;;;4.60;100.00
42587;BME280;28216;53.362;-6.288;2023-03-14T01:18:33;99327.13;;;4.64;100.00
42587;BME280;28216;53.362;-6.288;2023-03-14T01:21:00;99323.72;;;4.64;100.00
42587;BME280;28216;53.362;-6.288;2023-03-14T01:23:26;99328.59;;;4.67;100.00
42587;BME280;28216;53.362;-6.288;2023-03-14T01:25:52;99342.09;;;4.70;100.00
42587;BME280;28216;53.362;-6.288;2023-03-14T01:28:17;99345.19;;;4.74;100.00
42587;BME280;28216;53.362;-6.288;2023-03-14T01:30:43;99360.94;;;4.81;100.00
42587;BME280;28216;53.362;-6.288;2023-03-14T01:33:08;99369.22;;;4.84;100.00
42587;BME280;28216;53.362;-6.288;2023-03-14T01:35:34;99379.97;;;4.89;100.00
42587;BME280;28216;53.362;-6.288;2023-03-14T01:37:59;99390.22;;;4.99;100.00
42587;BME280;28216;53.362;-6.288;2023-03-14T01:40:25;99395.56;;;4.97;100.00
42587;BME280;28216;53.362;-6.288;2023-03-14T01:42:57;99421.56;;;4.97;100.00
42587;BME280;28216;53.362;-6.288;2023-03-14T01:53:47;99450.63;;;4.67;100.00
42587;BME280;28216;53.362;-6.288;2023-03-14T01:56:15;99470.53;;;4.58;100.00
42587;BME280;28216;53.362;-6.288;2023-03-14T01:58:44;99477.75;;;4.46;100.00
42587;BME280;28216;53.362;-6.288;2023-03-14T02:01:11;99480.47;;;4.45;100.00
42587;BME280;28216;53.362;-6.288;2023-03-14T02:03:45;99493.38;;;4.37;100.00
42587;BME280;28216;53.362;-6.288;2023-03-14T02:06:14;99504.19;;;4.32;100.00
42587;BME280;28216;53.362;-6.288;2023-03-14T02:08:42;99509.63;;;4.21;100.00
42587;BME280;28216;53.362;-6.288;2023-03-14T02:11:12;99518.44;;;4.10;100.00
42587;BME280;28216;53.362;-6.288;2023-03-14T02:13:38;99519.94;;;4.13;100.00
42587;BME280;28216;53.362;-6.288;2023-03-14T02:16:04;99529.03;;;3.99;100.00
42587;BME280;28216;53.362;-6.288;2023-03-14T02:18:30;99538.44;;;4.00;100.00
42587;BME280;28216;53.362;-6.288;2023-03-14T02:23:55;99554.75;;;3.93;100.00
42587;BME280;28216;53.362;-6.288;2023-03-14T02:28:57;99562.09;;;3.97;100.00
42587;BME280;28216;53.362;-6.288;2023-03-14T02:31:23;99575.56;;;4.01;100.00
42587;BME280;28216;53.362;-6.288;2023-03-14T02:33:49;99580.75;;;4.01;100.00
42587;BME280;28216;53.362;-6.288;2023-03-14T02:36:15;99586.38;;;3.96;100.00
42587;BME280;28216;53.362;-6.288;2023-03-14T02:39:08;99596.56;;;3.80;100.00
42587;BME280;28216;53.362;-6.288;2023-03-14T02:41:37;99606.50;;;3.85;100.00
42587;BME280;28216;53.362;-6.288;2023-03-14T02:44:03;99607.09;;;3.78;100.00
42587;BME280;28216;53.362;-6.288;2023-03-14T02:46:28;99611.97;;;3.81;100.00
42587;BME280;28216;53.362;-6.288;2023-03-14T02:49:12;99606.94;;;3.80;100.00
42587;BME280;28216;53.362;-6.288;2023-03-14T02:51:40;99584.00;;;3.85;100.00
42587;BME280;28216;53.362;-6.288;2023-03-14T02:54:07;99573.84;;;3.92;100.00
42587;BME280;28216;53.362;-6.288;2023-03-14T02:56:32;99575.34;;;3.94;100.00
42587;BME280;28216;53.362;-6.288;2023-03-14T02:58:58;99579.66;;;4.03;100.00
42587;BME280;28216;53.362;-6.288;2023-03-14T03:01:24;99584.09;;;4.11;100.00
42587;BME280;28216;53.362;-6.288;2023-03-14T03:03:49;99573.28;;;4.15;100.00
42587;BME280;28216;53.362;-6.288;2023-03-14T03:06:15;99581.44;;;4.21;100.00
42587;BME280;28216;53.362;-6.288;2023-03-14T03:08:40;99631.13;;;4.26;100.00
42587;BME280;28216;53.362;-6.288;2023-03-14T03:11:06;99640.81;;;4.24;100.00
42587;BME280;28216;53.362;-6.288;2023-03-14T03:13:31;99644.53;;;4.21;100.00
42587;BME280;28216;53.362;-6.288;2023-03-14T03:15:57;99642.59;;;4.23;100.00
42587;BME280;28216;53.362;-6.288;2023-03-14T03:18:22;99658.84;;;4.25;100.00
42587;BME280;28216;53.362;-6.288;2023-03-14T03:20:48;99644.75;;;4.28;100.00
42587;BME280;28216;53.362;-6.288;2023-03-14T03:23:13;99674.78;;;4.30;100.00
42587;BME280;28216;53.362;-6.288;2023-03-14T03:25:39;99671.38;;;4.30;100.00
42587;BME280;28216;53.362;-6.288;2023-03-14T03:28:05;99666.84;;;4.32;100.00
42587;BME280;28216;53.362;-6.288;2023-03-14T03:30:39;99691.84;;;4.33;100.00
42587;BME280;28216;53.362;-6.288;2023-03-14T03:33:05;99721.88;;;4.35;100.00
42587;BME280;28216;53.362;-6.288;2023-03-14T03:35:31;99723.78;;;4.33;100.00
42587;BME280;28216;53.362;-6.288;2023-03-14T03:37:57;99718.75;;;4.32;100.00
42587;BME280;28216;53.362;-6.288;2023-03-14T03:40:22;99736.38;;;4.28;100.00
42587;BME280;28216;53.362;-6.288;2023-03-14T03:42:48;99753.72;;;4.28;100.00
42587;BME280;28216;53.362;-6.288;2023-03-14T03:45:13;99770.53;;;4.24;100.00
42587;BME280;28216;53.362;-6.288;2023-03-14T03:47:39;99781.88;;;4.23;100.00
42587;BME280;28216;53.362;-6.288;2023-03-14T03:50:05;99774.38;;;4.20;100.00
42587;BME280;28216;53.362;-6.288;2023-03-14T03:52:30;99771.13;;;4.18;100.00
42587;BME280;28216;53.362;-6.288;2023-03-14T03:54:56;99771.41;;;4.14;100.00
42587;BME280;28216;53.362;-6.288;2023-03-14T03:57:21;99773.59;;;4.09;100.00
42587;BME280;28216;53.362;-6.288;2023-03-14T03:59:46;99785.63;;;4.10;100.00
42587;BME280;28216;53.362;-6.288;2023-03-14T04:02:12;99805.84;;;4.07;100.00
42587;BME280;28216;53.362;-6.288;2023-03-14T04:04:37;99801.59;;;4.06;100.00
42587;BME280;28216;53.362;-6.288;2023-03-14T04:07:03;99811.31;;;4.04;100.00
42587;BME280;28216;53.362;-6.288;2023-03-14T04:09:30;99809.00;;;4.01;100.00
42587;BME280;28216;53.362;-6.288;2023-03-14T04:11:55;99832.88;;;4.04;100.00
42587;BME280;28216;53.362;-6.288;2023-03-14T04:14:21;99855.81;;;3.99;100.00
42587;BME280;28216;53.362;-6.288;2023-03-14T04:16:47;99859.91;;;3.92;100.00
42587;BME280;28216;53.362;-6.288;2023-03-14T04:19:12;99879.16;;;3.90;100.00
42587;BME280;28216;53.362;-6.288;2023-03-14T04:21:38;99888.88;;;3.88;100.00
42587;BME280;28216;53.362;-6.288;2023-03-14T04:24:06;99895.28;;;3.83;100.00
42587;BME280;28216;53.362;-6.288;2023-03-14T04:26:31;99889.41;;;3.81;100.00
42587;BME280;28216;53.362;-6.288;2023-03-14T04:28:57;99896.78;;;3.76;100.00
42587;BME280;28216;53.362;-6.288;2023-03-14T04:31:22;99907.44;;;3.73;100.00
42587;BME280;28216;53.362;-6.288;2023-03-14T04:33:48;99905.66;;;3.74;100.00
42587;BME280;28216;53.362;-6.288;2023-03-14T04:36:14;99925.00;;;3.70;100.00
42587;BME280;28216;53.362;-6.288;2023-03-14T04:38:40;99934.13;;;3.64;100.00
42587;BME280;28216;53.362;-6.288;2023-03-14T04:41:06;99928.66;;;3.58;100.00
42587;BME280;28216;53.362;-6.288;2023-03-14T04:43:32;99940.25;;;3.54;100.00
42587;BME280;28216;53.362;-6.288;2023-03-14T04:45:57;99950.88;;;3.50;100.00
42587;BME280;28216;53.362;-6.288;2023-03-14T04:48:24;99956.34;;;3.47;100.00
42587;BME280;28216;53.362;-6.288;2023-03-14T04:50:50;99963.56;;;3.44;100.00
42587;BME280;28216;53.362;-6.288;2023-03-14T04:53:17;99967.09;;;3.43;100.00
42587;BME280;28216;53.362;-6.288;2023-03-14T04:55:48;99972.16;;;3.44;100.00
42587;BME280;28216;53.362;-6.288;2023-03-14T04:58:14;99983.22;;;3.46;100.00
42587;BME280;28216;53.362;-6.288;2023-03-14T05:00:39;99989.22;;;3.47;100.00
42587;BME280;28216;53.362;-6.288;2023-03-14T05:03:05;99990.72;;;3.49;100.00
42587;BME280;28216;53.362;-6.288;2023-03-14T05:05:30;99984.44;;;3.42;100.00
42587;BME280;28216;53.362;-6.288;2023-03-14T05:07:56;99995.63;;;3.43;100.00
42587;BME280;28216;53.362;-6.288;2023-03-14T05:10:21;100000.66;;;3.44;100.00
42587;BME280;28216;53.362;-6.288;2023-03-14T05:12:47;100016.22;;;3.44;100.00
42587;BME280;28216;53.362;-6.288;2023-03-14T05:15:12;100025.88;;;3.42;100.00
42587;BME280;28216;53.362;-6.288;2023-03-14T05:17:38;100042.78;;;3.37;100.00
42587;BME280;28216;53.362;-6.288;2023-03-14T05:20:03;100048.91;;;3.36;100.00
42587;BME280;28216;53.362;-6.288;2023-03-14T05:22:34;100056.66;;;3.26;100.00
42587;BME280;28216;53.362;-6.288;2023-03-14T05:24:59;100063.03;;;3.22;100.00
42587;BME280;28216;53.362;-6.288;2023-03-14T05:27:25;100069.69;;;3.15;100.00
42587;BME280;28216;53.362;-6.288;2023-03-14T05:29:50;100061.59;;;3.08;100.00
42587;BME280;28216;53.362;-6.288;2023-03-14T05:32:16;100067.16;;;3.04;100.00
42587;BME280;28216;53.362;-6.288;2023-03-14T05:34:41;100066.00;;;2.97;100.00
42587;BME280;28216;53.362;-6.288;2023-03-14T05:37:07;100073.09;;;2.95;100.00
42587;BME280;28216;53.362;-6.288;2023-03-14T05:39:32;100078.19;;;2.85;100.00
42587;BME280;28216;53.362;-6.288;2023-03-14T05:41:58;100093.72;;;2.85;100.00
42587;BME280;28216;53.362;-6.288;2023-03-14T05:44:23;100087.03;;;2.82;100.00
42587;BME280;28216;53.362;-6.288;2023-03-14T05:46:49;100090.97;;;2.77;100.00
42587;BME280;28216;53.362;-6.288;2023-03-14T05:49:14;100087.22;;;2.70;100.00
42587;BME280;28216;53.362;-6.288;2023-03-14T05:51:40;100097.94;;;2.65;100.00
42587;BME280;28216;53.362;-6.288;2023-03-14T05:54:05;100102.47;;;2.52;100.00
42587;BME280;28216;53.362;-6.288;2023-03-14T05:56:31;100111.19;;;2.51;100.00
42587;BME280;28216;53.362;-6.288;2023-03-14T05:58:56;100115.47;;;2.41;100.00
42587;BME280;28216;53.362;-6.288;2023-03-14T06:01:22;100116.16;;;2.43;100.00
42587;BME280;28216;53.362;-6.288;2023-03-14T06:03:47;100124.16;;;2.40;100.00
42587;BME280;28216;53.362;-6.288;2023-03-14T06:06:13;100139.69;;;2.40;100.00
42587;BME280;28216;53.362;-6.288;2023-03-14T06:08:38;100139.94;;;2.37;100.00
42587;BME280;28216;53.362;-6.288;2023-03-14T06:11:04;100144.06;;;2.28;100.00
42587;BME280;28216;53.362;-6.288;2023-03-14T06:13:30;100152.06;;;2.25;100.00
42587;BME280;28216;53.362;-6.288;2023-03-14T06:15:55;100159.72;;;2.27;100.00
42587;BME280;28216;53.362;-6.288;2023-03-14T06:18:21;100160.88;;;2.22;100.00
42587;BME280;28216;53.362;-6.288;2023-03-14T06:20:46;100168.41;;;2.26;100.00
42587;BME280;28216;53.362;-6.288;2023-03-14T06:23:12;100176.06;;;2.27;100.00
42587;BME280;28216;53.362;-6.288;2023-03-14T06:25:37;100180.16;;;2.30;100.00
42587;BME280;28216;53.362;-6.288;2023-03-14T06:28:03;100190.28;;;2.33;100.00
42587;BME280;28216;53.362;-6.288;2023-03-14T06:30:28;100189.44;;;2.32;100.00
42587;BME280;28216;53.362;-6.288;2023-03-14T06:32:54;100191.91;;;2.22;100.00
42587;BME280;28216;53.362;-6.288;2023-03-14T06:35:21;100197.94;;;2.23;100.00
42587;BME280;28216;53.362;-6.288;2023-03-14T06:37:47;100202.84;;;2.15;100.00
42587;BME280;28216;53.362;-6.288;2023-03-14T06:40:13;100205.91;;;2.20;100.00
42587;BME280;28216;53.362;-6.288;2023-03-14T06:42:43;100212.13;;;2.17;100.00
42587;BME280;28216;53.362;-6.288;2023-03-14T06:45:08;100219.19;;;2.15;100.00
42587;BME280;28216;53.362;-6.288;2023-03-14T06:47:34;100220.34;;;2.11;100.00
42587;BME280;28216;53.362;-6.288;2023-03-14T06:50:00;100227.06;;;2.14;100.00
42587;BME280;28216;53.362;-6.288;2023-03-14T06:52:25;100232.47;;;2.11;100.00
42587;BME280;28216;53.362;-6.288;2023-03-14T06:54:51;100234.81;;;2.14;100.00
42587;BME280;28216;53.362;-6.288;2023-03-14T06:57:18;100241.88;;;2.12;100.00
42587;BME280;28216;53.362;-6.288;2023-03-14T06:59:52;100238.94;;;2.16;100.00
42587;BME280;28216;53.362;-6.288;2023-03-14T07:02:17;100243.63;;;2.22;100.00
42587;BME280;28216;53.362;-6.288;2023-03-14T07:04:43;100254.94;;;2.33;100.00
42587;BME280;28216;53.362;-6.288;2023-03-14T07:07:09;100262.81;;;2.31;100.00
42587;BME280;28216;53.362;-6.288;2023-03-14T07:09:35;100264.59;;;2.31;100.00
42587;BME280;28216;53.362;-6.288;2023-03-14T07:12:02;100284.34;;;2.32;100.00
42587;BME280;28216;53.362;-6.288;2023-03-14T07:14:29;100298.44;;;2.39;100.00
42587;BME280;28216;53.362;-6.288;2023-03-14T07:16:57;100307.38;;;2.46;100.00
42587;BME280;28216;53.362;-6.288;2023-03-14T07:19:23;100300.56;;;2.45;100.00
42587;BME280;28216;53.362;-6.288;2023-03-14T07:21:48;100309.84;;;2.47;100.00
42587;BME280;28216;53.362;-6.288;2023-03-14T07:24:29;100319.84;;;2.52;100.00
42587;BME280;28216;53.362;-6.288;2023-03-14T07:29:40;100330.78;;;2.55;100.00
42587;BME280;28216;53.362;-6.288;2023-03-14T07:32:06;100337.50;;;2.58;100.00
42587;BME280;28216;53.362;-6.288;2023-03-14T07:34:41;100339.38;;;2.67;100.00
42587;BME280;28216;53.362;-6.288;2023-03-14T07:37:14;100335.59;;;2.71;100.00
42587;BME280;28216;53.362;-6.288;2023-03-14T07:39:43;100348.41;;;2.73;100.00
42587;BME280;28216;53.362;-6.288;2023-03-14T07:42:08;100353.00;;;2.80;100.00
42587;BME280;28216;53.362;-6.288;2023-03-14T07:44:34;100354.38;;;2.96;100.00
42587;BME280;28216;53.362;-6.288;2023-03-14T07:46:59;100367.81;;;3.12;100.00
42587;BME280;28216;53.362;-6.288;2023-03-14T07:49:25;100372.00;;;3.24;100.00
42587;BME280;28216;53.362;-6.288;2023-03-14T07:51:50;100366.75;;;3.46;100.00
42587;BME280;28216;53.362;-6.288;2023-03-14T07:54:16;100374.88;;;3.53;100.00
42587;BME280;28216;53.362;-6.288;2023-03-14T07:56:42;100380.56;;;3.79;100.00
42587;BME280;28216;53.362;-6.288;2023-03-14T07:59:07;100384.81;;;4.01;100.00
42587;BME280;28216;53.362;-6.288;2023-03-14T08:01:33;100389.69;;;4.15;100.00
42587;BME280;28216;53.362;-6.288;2023-03-14T08:03:59;100403.09;;;4.20;100.00
42587;BME280;28216;53.362;-6.288;2023-03-14T08:06:24;100399.78;;;4.39;100.00
42587;BME280;28216;53.362;-6.288;2023-03-14T08:08:50;100403.28;;;4.49;100.00
42587;BME280;28216;53.362;-6.288;2023-03-14T08:11:15;100409.88;;;4.32;100.00
42587;BME280;28216;53.362;-6.288;2023-03-14T08:13:41;100420.88;;;4.45;100.00
42587;BME280;28216;53.362;-6.288;2023-03-14T08:16:07;100419.16;;;4.35;100.00
42587;BME280;28216;53.362;-6.288;2023-03-14T08:18:32;100424.88;;;4.29;100.00
42587;BME280;28216;53.362;-6.288;2023-03-14T08:20:58;100430.19;;;4.27;100.00
42587;BME280;28216;53.362;-6.288;2023-03-14T08:23:23;100423.97;;;4.19;100.00
42587;BME280;28216;53.362;-6.288;2023-03-14T08:25:54;100433.78;;;4.15;100.00
42587;BME280;28216;53.362;-6.288;2023-03-14T08:28:20;100431.31;;;4.13;100.00
42587;BME280;28216;53.362;-6.288;2023-03-14T08:30:45;100428.09;;;4.21;100.00
42587;BME280;28216;53.362;-6.288;2023-03-14T08:33:11;100441.44;;;4.17;100.00
42587;BME280;28216;53.362;-6.288;2023-03-14T08:35:39;100439.75;;;4.06;100.00
42587;BME280;28216;53.362;-6.288;2023-03-14T08:38:05;100442.47;;;4.04;100.00
42587;BME280;28216;53.362;-6.288;2023-03-14T08:40:30;100446.25;;;4.00;100.00
42587;BME280;28216;53.362;-6.288;2023-03-14T08:42:55;100453.53;;;4.06;100.00
42587;BME280;28216;53.362;-6.288;2023-03-14T08:45:21;100448.16;;;4.19;100.00
42587;BME280;28216;53.362;-6.288;2023-03-14T08:47:48;100455.69;;;4.43;100.00
42587;BME280;28216;53.362;-6.288;2023-03-14T08:50:14;100461.78;;;4.53;100.00
42587;BME280;28216;53.362;-6.288;2023-03-14T08:52:39;100470.84;;;4.59;100.00
42587;BME280;28216;53.362;-6.288;2023-03-14T08:55:08;100480.22;;;4.71;100.00
42587;BME280;28216;53.362;-6.288;2023-03-14T08:57:34;100477.63;;;4.71;100.00
42587;BME280;28216;53.362;-6.288;2023-03-14T08:59:59;100481.47;;;4.76;100.00
42587;BME280;28216;53.362;-6.288;2023-03-14T09:02:25;100482.59;;;4.84;100.00
42587;BME280;28216;53.362;-6.288;2023-03-14T09:04:51;100486.09;;;5.03;100.00
42587;BME280;28216;53.362;-6.288;2023-03-14T09:07:17;100494.97;;;5.22;100.00
42587;BME280;28216;53.362;-6.288;2023-03-14T09:09:43;100489.53;;;5.34;100.00
42587;BME280;28216;53.362;-6.288;2023-03-14T09:12:08;100489.81;;;5.41;100.00
42587;BME280;28216;53.362;-6.288;2023-03-14T09:14:34;100489.28;;;5.37;100.00
42587;BME280;28216;53.362;-6.288;2023-03-14T09:17:00;100490.13;;;5.48;100.00
42587;BME280;28216;53.362;-6.288;2023-03-14T09:19:25;100476.28;;;5.47;100.00
42587;BME280;28216;53.362;-6.288;2023-03-14T09:21:51;100478.50;;;5.52;100.00
42587;BME280;28216;53.362;-6.288;2023-03-14T09:24:18;100479.59;;;5.59;100.00
42587;BME280;28216;53.362;-6.288;2023-03-14T09:26:54;100477.84;;;5.69;100.00
42587;BME280;28216;53.362;-6.288;2023-03-14T09:29:20;100475.66;;;5.84;100.00
42587;BME280;28216;53.362;-6.288;2023-03-14T09:31:45;100474.03;;;5.83;100.00
42587;BME280;28216;53.362;-6.288;2023-03-14T09:34:11;100476.97;;;5.99;100.00
42587;BME280;28216;53.362;-6.288;2023-03-14T09:36:36;100475.47;;;6.06;100.00
42587;BME280;28216;53.362;-6.288;2023-03-14T09:39:03;100484.91;;;6.17;100.00
42587;BME280;28216;53.362;-6.288;2023-03-14T09:41:31;100484.50;;;6.31;100.00
42587;BME280;28216;53.362;-6.288;2023-03-14T09:44:34;100501.06;;;6.30;100.00
42587;BME280;28216;53.362;-6.288;2023-03-14T09:47:05;100502.84;;;6.39;100.00
42587;BME280;28216;53.362;-6.288;2023-03-14T09:49:36;100499.28;;;6.40;100.00
42587;BME280;28216;53.362;-6.288;2023-03-14T09:52:11;100510.50;;;6.50;100.00
42587;BME280;28216;53.362;-6.288;2023-03-14T09:57:35;100517.78;;;6.37;100.00
42587;BME280;28216;53.362;-6.288;2023-03-14T10:00:06;100520.78;;;6.61;100.00
42587;BME280;28216;53.362;-6.288;2023-03-14T10:02:41;100524.75;;;6.65;100.00
42587;BME280;28216;53.362;-6.288;2023-03-14T10:05:19;100529.69;;;6.59;100.00
42587;BME280;28216;53.362;-6.288;2023-03-14T10:07:45;100520.66;;;6.53;100.00
42587;BME280;28216;53.362;-6.288;2023-03-14T10:10:16;100525.59;;;6.56;100.00
42587;BME280;28216;53.362;-6.288;2023-03-14T10:12:46;100534.34;;;6.75;100.00
42587;BME280;28216;53.362;-6.288;2023-03-14T10:15:14;100540.66;;;6.82;100.00
42587;BME280;28216;53.362;-6.288;2023-03-14T10:17:49;100551.59;;;6.95;100.00
42587;BME280;28216;53.362;-6.288;2023-03-14T10:20:38;100553.53;;;6.93;100.00
42587;BME280;28216;53.362;-6.288;2023-03-14T10:23:18;100552.19;;;7.26;100.00
42587;BME280;28216;53.362;-6.288;2023-03-14T10:25:48;100550.31;;;7.55;100.00
42587;BME280;28216;53.362;-6.288;2023-03-14T10:30:51;100555.81;;;7.43;100.00
42587;BME280;28216;53.362;-6.288;2023-03-14T10:33:26;100552.81;;;7.47;100.00
42587;BME280;28216;53.362;-6.288;2023-03-14T10:35:54;100550.88;;;7.49;100.00
42587;BME280;28216;53.362;-6.288;2023-03-14T10:38:23;100552.81;;;7.75;100.00
42587;BME280;28216;53.362;-6.288;2023-03-14T10:40:51;100543.09;;;7.67;100.00
42587;BME280;28216;53.362;-6.288;2023-03-14T10:43:49;100546.59;;;7.58;100.00
42587;BME280;28216;53.362;-6.288;2023-03-14T10:46:17;100563.59;;;7.62;100.00
42587;BME280;28216;53.362;-6.288;2023-03-14T10:48:43;100556.78;;;7.51;100.00
42587;BME280;28216;53.362;-6.288;2023-03-14T10:53:48;100558.28;;;7.81;100.00
42587;BME280;28216;53.362;-6.288;2023-03-14T10:56:21;100555.31;;;7.94;100.00
42587;BME280;28216;53.362;-6.288;2023-03-14T10:58:49;100566.41;;;7.96;100.00
42587;BME280;28216;53.362;-6.288;2023-03-14T11:04:21;100569.50;;;8.09;100.00
42587;BME280;28216;53.362;-6.288;2023-03-14T11:09:39;100567.75;;;8.27;100.00
42587;BME280;28216;53.362;-6.288;2023-03-14T11:12:28;100578.81;;;8.57;100.00
42587;BME280;28216;53.362;-6.288;2023-03-14T11:15:05;100571.88;;;8.66;100.00
42587;BME280;28216;53.362;-6.288;2023-03-14T11:23:36;100571.25;;;8.72;100.00
42587;BME280;28216;53.362;-6.288;2023-03-14T11:28:57;100566.09;;;8.80;100.00
42587;BME280;28216;53.362;-6.288;2023-03-14T11:31:32;100567.88;;;8.79;100.00
42587;BME280;28216;53.362;-6.288;2023-03-14T11:34:25;100566.78;;;8.64;100.00
42587;BME280;28216;53.362;-6.288;2023-03-14T11:37:11;100561.72;;;8.63;100.00
42587;BME280;28216;53.362;-6.288;2023-03-14T11:39:44;100563.78;;;8.95;100.00
42587;BME280;28216;53.362;-6.288;2023-03-14T11:42:15;100562.44;;;8.73;100.00
42587;BME280;28216;53.362;-6.288;2023-03-14T11:44:44;100573.13;;;8.62;100.00
42587;BME280;28216;53.362;-6.288;2023-03-14T11:47:30;100574.13;;;8.43;100.00
42587;BME280;28216;53.362;-6.288;2023-03-14T11:52:29;100563.66;;;8.60;100.00
42587;BME280;28216;53.362;-6.288;2023-03-14T11:55:20;100556.88;;;8.50;100.00
42587;BME280;28216;53.362;-6.288;2023-03-14T11:57:49;100557.59;;;8.60;100.00
42587;BME280;28216;53.362;-6.288;2023-03-14T12:00:23;100564.09;;;8.56;100.00
42587;BME280;28216;53.362;-6.288;2023-03-14T12:03:14;100566.16;;;8.17;100.00
42587;BME280;28216;53.362;-6.288;2023-03-14T12:05:48;100558.22;;;8.36;100.00
42587;BME280;28216;53.362;-6.288;2023-03-14T12:08:47;100555.50;;;8.28;100.00
42587;BME280;28216;53.362;-6.288;2023-03-14T12:14:00;100554.03;;;8.43;100.00
42587;BME280;28216;53.362;-6.288;2023-03-14T12:16:32;100559.91;;;8.27;100.00
42587;BME280;28216;53.362;-6.288;2023-03-14T12:24:26;100581.66;;;8.01;100.00
42587;BME280;28216;53.362;-6.288;2023-03-14T12:26:56;100586.19;;;7.98;100.00
42587;BME280;28216;53.362;-6.288;2023-03-14T12:29:22;100599.06;;;7.55;100.00
42587;BME280;28216;53.362;-6.288;2023-03-14T12:32:21;100600.47;;;7.77;100.00
42587;BME280;28216;53.362;-6.288;2023-03-14T12:34:47;100605.31;;;7.72;100.00
42587;BME280;28216;53.362;-6.288;2023-03-14T12:37:35;100614.72;;;7.55;100.00
42587;BME280;28216;53.362;-6.288;2023-03-14T12:40:21;100612.41;;;7.32;100.00
42587;BME280;28216;53.362;-6.288;2023-03-14T12:43:00;100611.34;;;7.25;100.00
42587;BME280;28216;53.362;-6.288;2023-03-14T12:48:00;100619.22;;;7.62;100.00
42587;BME280;28216;53.362;-6.288;2023-03-14T12:50:54;100617.44;;;7.90;100.00
42587;BME280;28216;53.362;-6.288;2023-03-14T12:56:24;100619.56;;;8.05;100.00
42587;BME280;28216;53.362;-6.288;2023-03-14T12:59:23;100613.22;;;8.07;100.00
42587;BME280;28216;53.362;-6.288;2023-03-14T13:01:55;100608.28;;;8.04;100.00
42587;BME280;28216;53.362;-6.288;2023-03-14T13:04:28;100614.81;;;8.18;100.00
42587;BME280;28216;53.362;-6.288;2023-03-14T13:06:57;100616.03;;;7.96;100.00
42587;BME280;28216;53.362;-6.288;2023-03-14T13:12:14;100629.66;;;7.90;100.00
42587;BME280;28216;53.362;-6.288;2023-03-14T13:14:44;100627.69;;;8.02;100.00
42587;BME280;28216;53.362;-6.288;2023-03-14T13:17:12;100631.06;;;7.84;100.00
42587;BME280;28216;53.362;-6.288;2023-03-14T13:19:39;100630.75;;;7.60;100.00
42587;BME280;28216;53.362;-6.288;2023-03-14T13:22:12;100628.72;;;7.54;100.00
42587;BME280;28216;53.362;-6.288;2023-03-14T13:24:40;100623.81;;;7.31;100.00
42587;BME280;28216;53.362;-6.288;2023-03-14T13:27:17;100627.78;;;7.36;100.00
42587;BME280;28216;53.362;-6.288;2023-03-14T13:29:44;100625.19;;;7.26;100.00
42587;BME280;28216;53.362;-6.288;2023-03-14T13:32:21;100630.56;;;7.24;100.00
42587;BME280;28216;53.362;-6.288;2023-03-14T13:34:47;100624.53;;;7.24;100.00
42587;BME280;28216;53.362;-6.288;2023-03-14T13:37:22;100625.16;;;7.55;100.00
42587;BME280;28216;53.362;-6.288;2023-03-14T13:39:56;100628.19;;;7.41;100.00
42587;BME280;28216;53.362;-6.288;2023-03-14T13:42:28;100618.56;;;7.41;100.00
42587;BME280;28216;53.362;-6.288;2023-03-14T13:44:56;100625.72;;;7.49;100.00
42587;BME280;28216;53.362;-6.288;2023-03-14T13:47:23;100635.19;;;7.40;100.00